sensor_id;sensor_type;location;lat;lon;timestamp;pressure;altitude;pressure_sealevel;temperature;humidity
51781;BME280;37844;57.126;24.288;2023-01-19T00:02:14;98950.47;;;1.74;100.00
51781;BME280;37844;57.126;24.288;2023-01-19T00:04:39;98950.44;;;1.73;100.00
51781;BME280;37844;57.126;24.288;2023-01-19T00:07:05;98948.88;;;1.79;100.00
51781;BME280;37844;57.126;24.288;2023-01-19T00:09:31;98957.50;;;1.87;100.00
51781;BME280;37844;57.126;24.288;2023-01-19T00:11:58;98955.69;;;1.82;100.00
51781;BME280;37844;57.126;24.288;2023-01-19T00:14:24;98960.09;;;1.90;100.00
51781;BME280;37844;57.126;24.288;2023-01-19T00:16:49;98939.56;;;1.80;100.00
51781;BME280;37844;57.126;24.288;2023-01-19T00:19:14;98938.69;;;1.78;100.00
51781;BME280;37844;57.126;24.288;2023-01-19T00:21:40;98958.41;;;1.91;100.00
51781;BME280;37844;57.126;24.288;2023-01-19T00:24:06;98962.34;;;1.75;100.00
51781;BME280;37844;57.126;24.288;2023-01-19T00:26:31;98958.34;;;1.86;100.00
51781;BME280;37844;57.126;24.288;2023-01-19T00:28:57;98951.72;;;1.95;100.00
51781;BME280;37844;57.126;24.288;2023-01-19T00:31:22;98949.91;;;1.89;100.00
51781;BME280;37844;57.126;24.288;2023-01-19T00:33:48;98954.34;;;2.01;100.00
51781;BME280;37844;57.126;24.288;2023-01-19T00:36:14;98944.94;;;1.95;100.00
51781;BME280;37844;57.126;24.288;2023-01-19T00:38:40;98957.66;;;1.97;100.00
51781;BME280;37844;57.126;24.288;2023-01-19T00:41:06;98950.00;;;1.94;100.00
51781;BME280;37844;57.126;24.288;2023-01-19T00:43:31;98955.91;;;1.93;100.00
51781;BME280;37844;57.126;24.288;2023-01-19T00:45:57;98954.28;;;1.96;100.00
51781;BME280;37844;57.126;24.288;2023-01-19T00:48:22;98961.00;;;1.94;100.00
51781;BME280;37844;57.126;24.288;2023-01-19T00:50:47;98959.34;;;1.95;100.00
51781;BME280;37844;57.126;24.288;2023-01-19T00:53:13;98970.38;;;1.97;100.00
51781;BME280;37844;57.126;24.288;2023-01-19T00:55:39;98968.53;;;1.88;100.00
51781;BME280;37844;57.126;24.288;2023-01-19T00:58:04;98968.34;;;1.79;100.00
51781;BME280;37844;57.126;24.288;2023-01-19T01:00:31;98961.66;;;1.84;100.00
51781;BME280;37844;57.126;24.288;2023-01-19T01:02:57;98961.94;;;1.98;100.00
51781;BME280;37844;57.126;24.288;2023-01-19T01:05:22;98960.81;;;1.83;100.00
51781;BME280;37844;57.126;24.288;2023-01-19T01:07:48;98964.34;;;1.90;100.00
51781;BME280;37844;57.126;24.288;2023-01-19T01:12:40;98971.84;;;1.84;100.00
51781;BME280;37844;57.126;24.288;2023-01-19T01:15:08;98972.44;;;1.72;100.00
51781;BME280;37844;57.126;24.288;2023-01-19T01:17:33;98984.31;;;1.73;100.00
51781;BME280;37844;57.126;24.288;2023-01-19T01:19:59;98986.66;;;1.62;100.00
51781;BME280;37844;57.126;24.288;2023-01-19T01:22:24;98990.19;;;1.70;100.00
51781;BME280;37844;57.126;24.288;2023-01-19T01:24:50;99001.25;;;1.73;100.00
51781;BME280;37844;57.126;24.288;2023-01-19T01:27:15;99009.47;;;1.61;100.00
51781;BME280;37844;57.126;24.288;2023-01-19T01:29:41;99005.91;;;1.53;100.00
51781;BME280;37844;57.126;24.288;2023-01-19T01:32:13;99006.41;;;1.36;100.00
51781;BME280;37844;57.126;24.288;2023-01-19T01:34:39;99014.81;;;1.34;100.00
51781;BME280;37844;57.126;24.288;2023-01-19T01:37:05;99017.09;;;1.21;100.00
51781;BME280;37844;57.126;24.288;2023-01-19T01:39:34;99026.31;;;1.18;100.00
51781;BME280;37844;57.126;24.288;2023-01-19T01:42:00;99033.66;;;1.05;100.00
51781;BME280;37844;57.126;24.288;2023-01-19T01:44:48;99040.03;;;0.90;100.00
51781;BME280;37844;57.126;24.288;2023-01-19T01:49:46;99049.69;;;0.70;100.00
51781;BME280;37844;57.126;24.288;2023-01-19T01:52:12;99043.59;;;0.63;100.00
51781;BME280;37844;57.126;24.288;2023-01-19T01:54:38;99065.66;;;0.66;100.00
51781;BME280;37844;57.126;24.288;2023-01-19T01:57:05;99069.06;;;0.68;100.00
51781;BME280;37844;57.126;24.288;2023-01-19T01:59:39;99068.91;;;0.60;100.00
51781;BME280;37844;57.126;24.288;2023-01-19T02:02:11;99070.84;;;0.70;100.00
51781;BME280;37844;57.126;24.288;2023-01-19T02:05:00;99079.28;;;0.71;100.00
51781;BME280;37844;57.126;24.288;2023-01-19T02:07:36;99085.44;;;0.79;100.00
51781;BME280;37844;57.126;24.288;2023-01-19T02:10:22;99094.63;;;0.75;100.00
51781;BME280;37844;57.126;24.288;2023-01-19T02:13:06;99110.88;;;0.82;100.00
51781;BME280;37844;57.126;24.288;2023-01-19T02:15:55;99111.22;;;0.64;100.00
51781;BME280;37844;57.126;24.288;2023-01-19T02:18:24;99122.13;;;0.60;100.00
51781;BME280;37844;57.126;24.288;2023-01-19T02:23:48;99130.47;;;0.56;100.00
51781;BME280;37844;57.126;24.288;2023-01-19T02:26:38;99131.13;;;0.49;100.00
51781;BME280;37844;57.126;24.288;2023-01-19T02:29:10;99154.25;;;0.61;100.00
51781;BME280;37844;57.126;24.288;2023-01-19T02:31:37;99145.72;;;0.57;100.00
51781;BME280;37844;57.126;24.288;2023-01-19T02:34:05;99159.06;;;0.50;100.00
51781;BME280;37844;57.126;24.288;2023-01-19T02:36:47;99169.97;;;0.48;100.00
51781;BME280;37844;57.126;24.288;2023-01-19T02:39:15;99172.78;;;0.58;100.00
51781;BME280;37844;57.126;24.288;2023-01-19T02:41:54;99171.81;;;0.53;100.00
51781;BME280;37844;57.126;24.288;2023-01-19T02:44:22;99185.19;;;0.48;100.00
51781;BME280;37844;57.126;24.288;2023-01-19T02:46:48;99203.72;;;0.47;100.00
51781;BME280;37844;57.126;24.288;2023-01-19T02:49:14;99205.31;;;0.43;100.00
51781;BME280;37844;57.126;24.288;2023-01-19T02:51:42;99211.97;;;0.39;100.00
51781;BME280;37844;57.126;24.288;2023-01-19T03:10:46;99270.34;;;0.42;100.00
51781;BME280;37844;57.126;24.288;2023-01-19T03:13:24;99275.34;;;0.39;100.00
51781;BME280;37844;57.126;24.288;2023-01-19T03:16:00;99277.78;;;0.36;100.00
51781;BME280;37844;57.126;24.288;2023-01-19T03:18:30;99287.88;;;0.35;100.00
51781;BME280;37844;57.126;24.288;2023-01-19T03:21:00;99303.97;;;0.37;100.00
51781;BME280;37844;57.126;24.288;2023-01-19T03:23:30;99296.25;;;0.32;100.00
51781;BME280;37844;57.126;24.288;2023-01-19T03:25:58;99321.94;;;0.43;100.00
51781;BME280;37844;57.126;24.288;2023-01-19T03:28:27;99322.50;;;0.34;100.00
51781;BME280;37844;57.126;24.288;2023-01-19T03:30:57;99315.81;;;0.36;100.00
51781;BME280;37844;57.126;24.288;2023-01-19T03:33:29;99349.84;;;0.45;100.00
51781;BME280;37844;57.126;24.288;2023-01-19T03:35:59;99351.47;;;0.42;100.00
51781;BME280;37844;57.126;24.288;2023-01-19T03:38:32;99360.59;;;0.37;100.00
51781;BME280;37844;57.126;24.288;2023-01-19T03:41:02;99380.47;;;0.51;100.00
51781;BME280;37844;57.126;24.288;2023-01-19T03:43:29;99381.09;;;0.44;100.00
51781;BME280;37844;57.126;24.288;2023-01-19T03:45:57;99391.31;;;0.47;100.00
51781;BME280;37844;57.126;24.288;2023-01-19T03:48:23;99404.97;;;0.52;100.00
51781;BME280;37844;57.126;24.288;2023-01-19T03:50:50;99392.84;;;0.41;100.00
51781;BME280;37844;57.126;24.288;2023-01-19T03:53:16;99410.78;;;0.48;100.00
51781;BME280;37844;57.126;24.288;2023-01-19T03:55:44;99408.41;;;0.52;100.00
51781;BME280;37844;57.126;24.288;2023-01-19T03:58:10;99429.41;;;0.50;100.00
51781;BME280;37844;57.126;24.288;2023-01-19T04:00:36;99437.00;;;0.48;100.00
51781;BME280;37844;57.126;24.288;2023-01-19T04:03:03;99442.91;;;0.49;100.00
51781;BME280;37844;57.126;24.288;2023-01-19T04:05:29;99460.06;;;0.56;100.00
51781;BME280;37844;57.126;24.288;2023-01-19T04:07:55;99457.22;;;0.47;100.00
51781;BME280;37844;57.126;24.288;2023-01-19T04:10:21;99464.81;;;0.47;100.00
51781;BME280;37844;57.126;24.288;2023-01-19T04:12:47;99478.00;;;0.36;100.00
51781;BME280;37844;57.126;24.288;2023-01-19T04:15:13;99490.03;;;0.42;100.00
51781;BME280;37844;57.126;24.288;2023-01-19T04:17:39;99490.00;;;0.40;100.00
51781;BME280;37844;57.126;24.288;2023-01-19T04:20:05;99499.47;;;0.46;100.00
51781;BME280;37844;57.126;24.288;2023-01-19T04:22:31;99522.28;;;0.46;100.00
51781;BME280;37844;57.126;24.288;2023-01-19T04:24:57;99536.81;;;0.52;100.00
51781;BME280;37844;57.126;24.288;2023-01-19T04:27:22;99551.25;;;0.54;100.00
51781;BME280;37844;57.126;24.288;2023-01-19T04:29:48;99563.16;;;0.55;100.00
51781;BME280;37844;57.126;24.288;2023-01-19T04:32:13;99567.91;;;0.46;100.00
51781;BME280;37844;57.126;24.288;2023-01-19T04:34:39;99600.47;;;0.59;100.00
51781;BME280;37844;57.126;24.288;2023-01-19T04:37:05;99613.41;;;0.67;100.00
51781;BME280;37844;57.126;24.288;2023-01-19T04:39:30;99620.09;;;0.65;100.00
51781;BME280;37844;57.126;24.288;2023-01-19T04:41:56;99633.97;;;0.75;100.00
51781;BME280;37844;57.126;24.288;2023-01-19T04:44:22;99634.94;;;0.78;100.00
51781;BME280;37844;57.126;24.288;2023-01-19T04:46:48;99638.28;;;0.77;100.00
51781;BME280;37844;57.126;24.288;2023-01-19T04:49:14;99653.00;;;0.88;100.00
51781;BME280;37844;57.126;24.288;2023-01-19T04:51:39;99662.50;;;0.93;100.00
51781;BME280;37844;57.126;24.288;2023-01-19T04:54:05;99677.13;;;1.00;100.00
51781;BME280;37844;57.126;24.288;2023-01-19T04:56:33;99678.03;;;1.02;100.00
51781;BME280;37844;57.126;24.288;2023-01-19T04:58:58;99692.75;;;1.13;100.00
51781;BME280;37844;57.126;24.288;2023-01-19T05:01:24;99693.06;;;1.22;100.00
51781;BME280;37844;57.126;24.288;2023-01-19T05:03:49;99714.69;;;1.36;100.00
51781;BME280;37844;57.126;24.288;2023-01-19T05:06:15;99714.59;;;1.33;100.00
51781;BME280;37844;57.126;24.288;2023-01-19T05:08:40;99725.91;;;1.43;100.00
51781;BME280;37844;57.126;24.288;2023-01-19T05:11:06;99738.78;;;1.47;100.00
51781;BME280;37844;57.126;24.288;2023-01-19T05:13:32;99738.78;;;1.47;100.00
51781;BME280;37844;57.126;24.288;2023-01-19T05:15:59;99724.00;;;1.36;100.00
51781;BME280;37844;57.126;24.288;2023-01-19T05:18:24;99761.97;;;1.58;100.00
51781;BME280;37844;57.126;24.288;2023-01-19T05:20:50;99769.50;;;1.55;100.00
51781;BME280;37844;57.126;24.288;2023-01-19T05:23:15;99780.59;;;1.59;100.00
51781;BME280;37844;57.126;24.288;2023-01-19T05:25:41;99785.75;;;1.60;100.00
51781;BME280;37844;57.126;24.288;2023-01-19T05:28:07;99791.91;;;1.67;100.00
51781;BME280;37844;57.126;24.288;2023-01-19T05:30:33;99801.28;;;1.69;100.00
51781;BME280;37844;57.126;24.288;2023-01-19T05:32:58;99816.47;;;1.68;100.00
51781;BME280;37844;57.126;24.288;2023-01-19T05:35:24;99808.53;;;1.59;100.00
51781;BME280;37844;57.126;24.288;2023-01-19T05:37:49;99829.22;;;1.69;100.00
51781;BME280;37844;57.126;24.288;2023-01-19T05:40:15;99846.41;;;1.77;100.00
51781;BME280;37844;57.126;24.288;2023-01-19T05:42:40;99852.31;;;1.76;100.00
51781;BME280;37844;57.126;24.288;2023-01-19T05:45:06;99867.66;;;1.79;100.00
51781;BME280;37844;57.126;24.288;2023-01-19T05:47:32;99880.53;;;1.83;100.00
51781;BME280;37844;57.126;24.288;2023-01-19T05:49:58;99889.69;;;1.80;100.00
51781;BME280;37844;57.126;24.288;2023-01-19T05:52:23;99895.63;;;1.80;100.00
51781;BME280;37844;57.126;24.288;2023-01-19T05:54:51;99906.72;;;1.82;100.00
51781;BME280;37844;57.126;24.288;2023-01-19T05:57:19;99921.09;;;1.82;100.00
51781;BME280;37844;57.126;24.288;2023-01-19T05:59:45;99930.66;;;1.89;100.00
51781;BME280;37844;57.126;24.288;2023-01-19T06:02:10;99939.00;;;1.85;100.00
51781;BME280;37844;57.126;24.288;2023-01-19T06:04:36;99941.59;;;1.86;100.00
51781;BME280;37844;57.126;24.288;2023-01-19T06:07:01;99960.03;;;1.81;100.00
51781;BME280;37844;57.126;24.288;2023-01-19T06:09:27;99978.88;;;1.87;100.00
51781;BME280;37844;57.126;24.288;2023-01-19T06:11:53;99979.94;;;1.93;100.00
51781;BME280;37844;57.126;24.288;2023-01-19T06:14:20;100000.81;;;1.84;100.00
51781;BME280;37844;57.126;24.288;2023-01-19T06:16:46;100014.47;;;1.87;100.00
51781;BME280;37844;57.126;24.288;2023-01-19T06:19:11;100015.28;;;1.86;100.00
51781;BME280;37844;57.126;24.288;2023-01-19T06:21:37;100021.41;;;1.91;100.00
51781;BME280;37844;57.126;24.288;2023-01-19T06:24:03;100023.66;;;1.84;100.00
51781;BME280;37844;57.126;24.288;2023-01-19T06:26:29;100033.34;;;1.94;100.00
51781;BME280;37844;57.126;24.288;2023-01-19T06:28:55;100034.97;;;1.92;100.00
51781;BME280;37844;57.126;24.288;2023-01-19T06:31:20;100052.16;;;1.99;100.00
51781;BME280;37844;57.126;24.288;2023-01-19T06:33:46;100056.97;;;1.91;100.00
51781;BME280;37844;57.126;24.288;2023-01-19T06:36:11;100069.66;;;1.90;100.00
51781;BME280;37844;57.126;24.288;2023-01-19T06:38:37;100072.88;;;1.86;100.00
51781;BME280;37844;57.126;24.288;2023-01-19T06:41:02;100086.84;;;1.75;100.00
51781;BME280;37844;57.126;24.288;2023-01-19T06:43:29;100087.72;;;1.75;100.00
51781;BME280;37844;57.126;24.288;2023-01-19T06:45:55;100098.78;;;1.77;100.00
51781;BME280;37844;57.126;24.288;2023-01-19T06:48:22;100101.44;;;1.80;100.00
51781;BME280;37844;57.126;24.288;2023-01-19T06:50:47;100110.81;;;1.81;100.00
51781;BME280;37844;57.126;24.288;2023-01-19T06:53:14;100128.81;;;1.87;100.00
51781;BME280;37844;57.126;24.288;2023-01-19T06:55:41;100076.81;;;1.55;100.00
51781;BME280;37844;57.126;24.288;2023-01-19T06:58:07;100128.88;;;1.89;100.00
51781;BME280;37844;57.126;24.288;2023-01-19T07:00:33;100127.78;;;1.82;100.00
51781;BME280;37844;57.126;24.288;2023-01-19T07:02:59;100136.13;;;1.78;100.00
51781;BME280;37844;57.126;24.288;2023-01-19T07:05:24;100133.59;;;1.78;100.00
51781;BME280;37844;57.126;24.288;2023-01-19T07:07:51;100140.75;;;1.88;100.00
51781;BME280;37844;57.126;24.288;2023-01-19T07:10:17;100140.06;;;1.93;100.00
51781;BME280;37844;57.126;24.288;2023-01-19T07:12:43;100133.00;;;1.85;100.00
51781;BME280;37844;57.126;24.288;2023-01-19T07:15:10;100141.94;;;1.98;100.00
51781;BME280;37844;57.126;24.288;2023-01-19T07:17:39;100140.16;;;1.96;100.00
51781;BME280;37844;57.126;24.288;2023-01-19T07:20:08;100145.31;;;1.97;100.00
51781;BME280;37844;57.126;24.288;2023-01-19T07:22:35;100153.84;;;1.99;100.00
51781;BME280;37844;57.126;24.288;2023-01-19T07:25:01;100161.28;;;2.17;100.00
51781;BME280;37844;57.126;24.288;2023-01-19T07:27:26;100163.72;;;2.14;100.00
51781;BME280;37844;57.126;24.288;2023-01-19T07:29:53;100167.25;;;2.18;100.00
51781;BME280;37844;57.126;24.288;2023-01-19T07:32:18;100167.06;;;2.36;100.00
51781;BME280;37844;57.126;24.288;2023-01-19T07:34:44;100166.91;;;2.55;100.00
51781;BME280;37844;57.126;24.288;2023-01-19T07:37:09;100169.09;;;2.68;100.00
51781;BME280;37844;57.126;24.288;2023-01-19T07:39:35;100172.06;;;2.81;100.00
51781;BME280;37844;57.126;24.288;2023-01-19T07:42:00;100175.63;;;2.86;100.00
51781;BME280;37844;57.126;24.288;2023-01-19T07:44:26;100188.25;;;3.07;100.00
51781;BME280;37844;57.126;24.288;2023-01-19T07:46:52;100196.34;;;3.21;100.00
51781;BME280;37844;57.126;24.288;2023-01-19T07:49:17;100186.38;;;3.03;100.00
51781;BME280;37844;57.126;24.288;2023-01-19T07:51:42;100195.81;;;3.05;100.00
51781;BME280;37844;57.126;24.288;2023-01-19T07:54:08;100191.91;;;3.15;100.00
51781;BME280;37844;57.126;24.288;2023-01-19T07:56:34;100221.25;;;3.55;100.00
51781;BME280;37844;57.126;24.288;2023-01-19T07:58:59;100235.22;;;3.66;100.00
51781;BME280;37844;57.126;24.288;2023-01-19T08:01:25;100238.59;;;3.92;100.00
51781;BME280;37844;57.126;24.288;2023-01-19T08:03:50;100238.53;;;4.18;100.00
51781;BME280;37844;57.126;24.288;2023-01-19T08:06:26;100253.38;;;4.31;100.00
51781;BME280;37844;57.126;24.288;2023-01-19T08:08:54;100261.19;;;4.36;100.00
51781;BME280;37844;57.126;24.288;2023-01-19T08:11:20;100260.31;;;4.35;100.00
51781;BME280;37844;57.126;24.288;2023-01-19T08:13:45;100279.38;;;4.46;100.00
51781;BME280;37844;57.126;24.288;2023-01-19T08:16:10;100234.28;;;4.47;100.00
51781;BME280;37844;57.126;24.288;2023-01-19T08:18:36;100286.84;;;5.29;100.00
51781;BME280;37844;57.126;24.288;2023-01-19T08:21:02;100296.41;;;5.70;100.00
51781;BME280;37844;57.126;24.288;2023-01-19T08:23:27;100294.53;;;5.63;100.00
51781;BME280;37844;57.126;24.288;2023-01-19T08:25:53;100309.69;;;5.57;100.00
51781;BME280;37844;57.126;24.288;2023-01-19T08:28:19;100320.28;;;5.70;100.00
51781;BME280;37844;57.126;24.288;2023-01-19T08:30:45;100314.09;;;5.95;100.00
51781;BME280;37844;57.126;24.288;2023-01-19T08:33:18;100338.66;;;6.22;100.00
51781;BME280;37844;57.126;24.288;2023-01-19T08:35:47;100333.13;;;6.42;100.00
51781;BME280;37844;57.126;24.288;2023-01-19T08:38:13;100344.50;;;6.54;100.00
51781;BME280;37844;57.126;24.288;2023-01-19T08:40:42;100342.47;;;6.77;100.00
51781;BME280;37844;57.126;24.288;2023-01-19T08:43:12;100350.16;;;6.40;100.00
51781;BME280;37844;57.126;24.288;2023-01-19T08:45:40;100359.78;;;6.89;100.00
51781;BME280;37844;57.126;24.288;2023-01-19T08:48:11;100369.75;;;6.75;100.00
51781;BME280;37844;57.126;24.288;2023-01-19T08:50:38;100371.91;;;6.58;100.00
51781;BME280;37844;57.126;24.288;2023-01-19T08:53:03;100369.97;;;6.48;100.00
51781;BME280;37844;57.126;24.288;2023-01-19T08:55:38;100381.63;;;6.72;100.00
51781;BME280;37844;57.126;24.288;2023-01-19T08:58:10;100382.47;;;6.72;100.00
51781;BME280;37844;57.126;24.288;2023-01-19T09:00:37;100369.28;;;6.93;100.00
51781;BME280;37844;57.126;24.288;2023-01-19T09:03:04;100386.44;;;6.59;100.00
51781;BME280;37844;57.126;24.288;2023-01-19T09:05:31;100402.81;;;6.65;100.00
51781;BME280;37844;57.126;24.288;2023-01-19T09:08:00;100413.91;;;6.30;100.00
51781;BME280;37844;57.126;24.288;2023-01-19T09:10:27;100415.66;;;6.31;100.00
51781;BME280;37844;57.126;24.288;2023-01-19T09:12:56;100442.59;;;6.50;100.00
51781;BME280;37844;57.126;24.288;2023-01-19T09:15:22;100449.19;;;6.78;100.00
51781;BME280;37844;57.126;24.288;2023-01-19T09:17:48;100457.38;;;6.62;100.00
51781;BME280;37844;57.126;24.288;2023-01-19T09:20:15;100460.75;;;6.61;100.00
51781;BME280;37844;57.126;24.288;2023-01-19T09:22:41;100465.81;;;6.59;100.00
51781;BME280;37844;57.126;24.288;2023-01-19T09:25:07;100471.94;;;6.65;100.00
51781;BME280;37844;57.126;24.288;2023-01-19T09:27:34;100491.06;;;6.11;100.00
51781;BME280;37844;57.126;24.288;2023-01-19T09:29:59;100498.91;;;5.88;100.00
51781;BME280;37844;57.126;24.288;2023-01-19T09:32:24;100498.78;;;6.12;100.00
51781;BME280;37844;57.126;24.288;2023-01-19T09:34:50;100495.88;;;6.32;100.00
51781;BME280;37844;57.126;24.288;2023-01-19T09:37:18;100501.34;;;6.14;100.00
51781;BME280;37844;57.126;24.288;2023-01-19T09:39:43;100517.94;;;6.28;100.00
51781;BME280;37844;57.126;24.288;2023-01-19T09:42:44;100526.22;;;6.18;100.00
51781;BME280;37844;57.126;24.288;2023-01-19T09:45:35;100543.03;;;5.81;100.00
51781;BME280;37844;57.126;24.288;2023-01-19T09:48:15;100553.34;;;5.54;100.00
51781;BME280;37844;57.126;24.288;2023-01-19T09:50:47;100555.53;;;5.42;100.00
51781;BME280;37844;57.126;24.288;2023-01-19T09:53:20;100568.28;;;5.15;100.00
51781;BME280;37844;57.126;24.288;2023-01-19T09:55:50;100571.38;;;4.79;100.00
51781;BME280;37844;57.126;24.288;2023-01-19T09:58:16;100570.41;;;4.25;100.00
51781;BME280;37844;57.126;24.288;2023-01-19T10:00:49;100565.94;;;3.96;100.00
51781;BME280;37844;57.126;24.288;2023-01-19T10:03:17;100587.34;;;3.54;100.00
51781;BME280;37844;57.126;24.288;2023-01-19T10:05:56;100582.06;;;3.72;100.00
51781;BME280;37844;57.126;24.288;2023-01-19T10:08:24;100587.56;;;3.83;100.00
51781;BME280;37844;57.126;24.288;2023-01-19T10:10:54;100584.31;;;3.65;100.00
51781;BME280;37844;57.126;24.288;2023-01-19T10:13:46;100581.94;;;3.47;100.00
51781;BME280;37844;57.126;24.288;2023-01-19T10:18:58;100567.88;;;3.56;100.00
51781;BME280;37844;57.126;24.288;2023-01-19T10:21:39;100573.16;;;3.61;100.00
51781;BME280;37844;57.126;24.288;2023-01-19T10:24:35;100572.72;;;3.50;100.00
51781;BME280;37844;57.126;24.288;2023-01-19T10:27:16;100570.53;;;3.37;100.00
51781;BME280;37844;57.126;24.288;2023-01-19T10:29:43;100573.72;;;3.54;100.00
51781;BME280;37844;57.126;24.288;2023-01-19T10:34:38;100578.06;;;3.56;100.00
51781;BME280;37844;57.126;24.288;2023-01-19T10:37:29;100588.47;;;3.63;100.00
51781;BME280;37844;57.126;24.288;2023-01-19T10:42:39;100583.47;;;3.64;100.00
51781;BME280;37844;57.126;24.288;2023-01-19T10:47:40;100588.78;;;3.48;100.00
51781;BME280;37844;57.126;24.288;2023-01-19T10:50:29;100600.13;;;3.56;100.00
51781;BME280;37844;57.126;24.288;2023-01-19T10:52:59;100581.47;;;3.57;100.00
51781;BME280;37844;57.126;24.288;2023-01-19T10:55:30;100600.91;;;3.76;100.00
51781;BME280;37844;57.126;24.288;2023-01-19T10:57:57;100582.56;;;3.86;100.00
51781;BME280;37844;57.126;24.288;2023-01-19T11:00:36;100608.47;;;3.74;100.00
51781;BME280;37844;57.126;24.288;2023-01-19T11:05:46;100620.75;;;4.07;100.00
51781;BME280;37844;57.126;24.288;2023-01-19T11:08:26;100628.44;;;4.31;100.00
51781;BME280;37844;57.126;24.288;2023-01-19T11:10:58;100632.72;;;4.08;100.00
51781;BME280;37844;57.126;24.288;2023-01-19T11:13:26;100640.59;;;3.92;100.00
51781;BME280;37844;57.126;24.288;2023-01-19T11:15:56;100607.00;;;3.36;100.00
51781;BME280;37844;57.126;24.288;2023-01-19T11:18:35;100657.75;;;3.31;100.00
51781;BME280;37844;57.126;24.288;2023-01-19T11:21:07;100658.13;;;3.19;100.00
51781;BME280;37844;57.126;24.288;2023-01-19T11:23:35;100663.25;;;3.00;100.00
51781;BME280;37844;57.126;24.288;2023-01-19T11:26:08;100671.66;;;2.97;100.00
51781;BME280;37844;57.126;24.288;2023-01-19T11:28:42;100680.91;;;2.76;100.00
51781;BME280;37844;57.126;24.288;2023-01-19T11:33:48;100677.97;;;2.67;100.00
51781;BME280;37844;57.126;24.288;2023-01-19T11:36:18;100692.81;;;2.58;100.00
51781;BME280;37844;57.126;24.288;2023-01-19T11:38:49;100680.44;;;2.46;100.00
51781;BME280;37844;57.126;24.288;2023-01-19T11:41:21;100698.09;;;2.43;100.00
51781;BME280;37844;57.126;24.288;2023-01-19T11:47:00;100720.06;;;2.41;100.00
51781;BME280;37844;57.126;24.288;2023-01-19T11:49:41;100719.84;;;2.36;100.00
51781;BME280;37844;57.126;24.288;2023-01-19T11:52:21;100728.56;;;2.41;100.00
51781;BME280;37844;57.126;24.288;2023-01-19T11:54:53;100727.19;;;2.30;100.00
51781;BME280;37844;57.126;24.288;2023-01-19T11:57:20;100736.28;;;2.25;100.00
51781;BME280;37844;57.126;24.288;2023-01-19T11:59:46;100735.50;;;2.26;100.00
51781;BME280;37844;57.126;24.288;2023-01-19T12:02:20;100738.34;;;2.14;100.00
51781;BME280;37844;57.126;24.288;2023-01-19T12:04:48;100743.84;;;2.23;100.00
51781;BME280;37844;57.126;24.288;2023-01-19T12:07:19;100743.44;;;2.14;100.00
51781;BME280;37844;57.126;24.288;2023-01-19T12:09:50;100746.97;;;2.18;100.00
51781;BME280;37844;57.126;24.288;2023-01-19T12:14:59;100750.59;;;2.23;100.00
51781;BME280;37844;57.126;24.288;2023-01-19T12:17:30;100748.72;;;2.19;100.00
51781;BME280;37844;57.126;24.288;2023-01-19T12:26:25;100759.03;;;2.22;100.00
51781;BME280;37844;57.126;24.288;2023-01-19T12:29:02;100756.56;;;2.23;100.00
51781;BME280;37844;57.126;24.288;2023-01-19T12:31:32;100753.44;;;2.29;100.00
51781;BME280;37844;57.126;24.288;2023-01-19T12:37:05;100752.19;;;2.39;100.00
51781;BME280;37844;57.126;24.288;2023-01-19T12:39:31;100756.06;;;2.12;100.00
51781;BME280;37844;57.126;24.288;2023-01-19T12:42:05;100769.00;;;2.17;100.00
51781;BME280;37844;57.126;24.288;2023-01-19T12:44:32;100720.69;;;1.81;100.00
51781;BME280;37844;57.126;24.288;2023-01-19T12:47:20;100767.69;;;2.07;100.00
51781;BME280;37844;57.126;24.288;2023-01-19T12:49:55;100773.22;;;2.17;100.00
51781;BME280;37844;57.126;24.288;2023-01-19T12:55:27;100773.25;;;2.18;100.00
51781;BME280;37844;57.126;24.288;2023-01-19T12:58:02;100779.50;;;2.25;100.00
51781;BME280;37844;57.126;24.288;2023-01-19T13:00:33;100783.28;;;2.15;100.00
51781;BME280;37844;57.126;24.288;2023-01-19T13:13:32;100799.94;;;1.90;100.00
51781;BME280;37844;57.126;24.288;2023-01-19T13:21:13;100818.44;;;2.06;100.00
51781;BME280;37844;57.126;24.288;2023-01-19T13:23:53;100807.09;;;1.99;100.00
51781;BME280;37844;57.126;24.288;2023-01-19T13:26:21;100823.31;;;2.01;100.00
51781;BME280;37844;57.126;24.288;2023-01-19T13:29:01;100811.41;;;2.00;100.00
51781;BME280;37844;57.126;24.288;2023-01-19T13:31:39;100820.00;;;2.02;100.00
51781;BME280;37844;57.126;24.288;2023-01-19T13:34:13;100825.94;;;2.03;100.00
51781;BME280;37844;57.126;24.288;2023-01-19T13:36:44;100830.72;;;1.97;100.00
51781;BME280;37844;57.126;24.288;2023-01-19T13:39:16;100830.06;;;2.01;100.00
51781;BME280;37844;57.126;24.288;2023-01-19T13:41:42;100828.56;;;2.04;100.00
51781;BME280;37844;57.126;24.288;2023-01-19T13:44:16;100838.72;;;2.04;100.00
51781;BME280;37844;57.126;24.288;2023-01-19T13:46:43;100836.91;;;2.02;100.00
51781;BME280;37844;57.126;24.288;2023-01-19T13:49:19;100834.44;;;2.03;100.00
51781;BME280;37844;57.126;24.288;2023-01-19T13:52:15;100831.84;;;2.02;100.00
51781;BME280;37844;57.126;24.288;2023-01-19T13:57:29;100842.06;;;2.03;100.00
51781;BME280;37844;57.126;24.288;2023-01-19T14:03:17;100837.06;;;2.05;100.00
51781;BME280;37844;57.126;24.288;2023-01-19T14:05:43;100838.56;;;2.01;100.00
51781;BME280;37844;57.126;24.288;2023-01-19T14:15:37;100847.38;;;1.74;100.00
51781;BME280;37844;57.126;24.288;2023-01-19T14:26:52;100858.03;;;1.66;100.00
51781;BME280;37844;57.126;24.288;2023-01-19T14:29:29;100852.25;;;1.53;100.00
51781;BME280;37844;57.126;24.288;2023-01-19T14:34:43;100862.78;;;1.60;100.00